Terminal Aerodrome Forecast
Issued by NWS Blacksburg, VA

Home | Current Version | Previous Version | Text Only | Print | Product List | Glossary On
Versions: 1 2 3 4 5 6 7 8 9 10 11 12 13 14 15 16 17 18 19 20 21 22 23 24 25 26 27 28 29 30 31 32 33 34 35 36 37 38 39 40 41 42 43 44 45 46
547
FTUS41 KRNK 022204 AAA
TAFDAN
TAF AMD
KDAN 022204Z 0222/0318 23010G20KT 5SM SHRA VCTS BKN050CB
      TEMPO 0222/0302 VRB15G30KT 1SM +TSRA BR OVC025CB
     FM030600 22005KT P6SM -SHRA VCTS BKN050CB OVC250
     FM030800 00000KT 5SM BR VCSH OVC020
     FM031500 26007KT P6SM OVC025=

USA.gov is the U.S. government's official web portal to all federal, state and local government web resources and services.